Time;durP1;ratioP1;P1;durP2;ratioP2;P2;SDS_P1;SDS_P2;PMS_P1;PMS_P2;Temp;Humidity;BMP_temperature;BMP_pressure;BME280_temperature;BME280_humidity;BME280_pressure;Samples;Min_cycle;Max_cycle;Signal;HPM_P1;HPM_P2
2021/01/06 00:01:10;;;;;;;;;;;;;;;25.21;38.17;100258.19;5033358;28;1091;-60
2021/01/06 00:03:35;;;;;;;;;;;;;;;25.19;38.33;100265.66;5040046;28;995;-61
2021/01/06 00:06:04;;;;;;;;;;;;;;;25.17;38.46;100266.69;5042281;28;1308;-57
2021/01/06 00:08:29;;;;;;;;;;;;;;;25.17;38.05;100264.00;5034565;28;1007;-57
2021/01/06 00:10:55;;;;;;;;;;;;;;;25.19;38.31;100262.97;5034677;28;1890;-60
2021/01/06 00:13:21;;;;;;;;;;;;;;;25.15;38.40;100268.78;5039621;28;1090;-60
2021/01/06 00:15:47;;;;;;;;;;;;;;;25.14;38.36;100263.66;5044389;28;1352;-58
2021/01/06 00:18:13;;;;;;;;;;;;;;;25.14;38.12;100263.66;5032183;28;1071;-58
2021/01/06 00:20:38;;;;;;;;;;;;;;;25.12;38.17;100263.06;5034695;28;999;-58
2021/01/06 00:23:03;;;;;;;;;;;;;;;25.14;38.26;100275.19;5036063;28;992;-58
2021/01/06 00:25:30;;;;;;;;;;;;;;;25.13;38.00;100265.50;5041719;28;1260;-60
2021/01/06 00:27:56;;;;;;;;;;;;;;;25.11;38.10;100272.97;5037668;28;1199;-60
2021/01/06 00:30:21;;;;;;;;;;;;;;;25.11;38.09;100256.06;5036544;28;1089;-57
2021/01/06 00:32:47;;;;;;;;;;;;;;;25.10;37.86;100260.59;5033939;28;1910;-59
2021/01/06 00:35:12;;;;;;;;;;;;;;;25.10;38.10;100265.97;5034061;28;1086;-58
2021/01/06 00:37:37;;;;;;;;;;;;;;;25.09;37.87;100258.97;5041463;28;1358;-57
2021/01/06 00:40:03;;;;;;;;;;;;;;;25.08;37.88;100260.00;5036114;28;1133;-59
2021/01/06 00:42:28;;;;;;;;;;;;;;;25.09;38.09;100261.66;5037375;28;1145;-58
2021/01/06 00:44:53;;;;;;;;;;;;;;;25.10;38.03;100254.44;5015822;28;1039;-59
2021/01/06 00:47:19;;;;;;;;;;;;;;;25.06;38.00;100266.66;5042008;28;1231;-59
2021/01/06 00:49:44;;;;;;;;;;;;;;;25.06;37.94;100261.31;5039916;28;1034;-58
2021/01/06 00:52:09;;;;;;;;;;;;;;;25.06;37.91;100264.00;5033964;28;1894;-58
2021/01/06 00:54:36;;;;;;;;;;;;;;;25.06;37.71;100264.78;5034959;28;1023;-58
2021/01/06 00:57:02;;;;;;;;;;;;;;;25.07;37.57;100277.16;5034009;28;1294;-55
2021/01/06 00:59:27;;;;;;;;;;;;;;;25.06;37.79;100269.34;5041660;28;1106;-55
2021/01/06 01:01:52;;;;;;;;;;;;;;;25.06;37.78;100275.53;5036557;28;1065;-61
2021/01/06 01:04:17;;;;;;;;;;;;;;;25.04;37.95;100277.63;5038865;28;1149;-58
2021/01/06 01:06:42;;;;;;;;;;;;;;;25.05;37.75;100276.56;5033565;28;1272;-61
2021/01/06 01:09:08;;;;;;;;;;;;;;;25.04;37.77;100272.25;5031765;28;1169;-58
2021/01/06 01:11:36;;;;;;;;;;;;;;;25.02;37.83;100277.88;5040886;28;1977;-59
2021/01/06 01:14:02;;;;;;;;;;;;;;;25.03;37.65;100275.97;5036860;28;967;-61
2021/01/06 01:16:27;;;;;;;;;;;;;;;25.03;37.70;100273.28;5042127;28;1758;-59
2021/01/06 01:18:53;;;;;;;;;;;;;;;25.01;37.55;100275.41;5027632;28;944;-60
2021/01/06 01:21:19;;;;;;;;;;;;;;;25.01;37.84;100270.88;5037166;28;1112;-56
2021/01/06 01:23:44;;;;;;;;;;;;;;;25.01;37.51;100278.06;5039097;28;1022;-58
2021/01/06 01:26:10;;;;;;;;;;;;;;;25.01;37.79;100272.72;5034920;28;1406;-57
2021/01/06 01:28:35;;;;;;;;;;;;;;;24.99;37.81;100275.63;5037135;28;1193;-58
2021/01/06 01:31:00;;;;;;;;;;;;;;;24.97;37.60;100271.53;5039339;28;1879;-61
2021/01/06 01:33:26;;;;;;;;;;;;;;;24.97;37.49;100272.38;5037680;28;1082;-57
2021/01/06 01:35:51;;;;;;;;;;;;;;;24.93;37.53;100265.00;5033876;28;1384;-61
2021/01/06 01:38:18;;;;;;;;;;;;;;;24.96;37.84;100276.09;5046429;28;1148;-60
2021/01/06 01:40:43;;;;;;;;;;;;;;;24.97;37.33;100272.38;5036471;28;1162;-60
2021/01/06 01:43:16;;;;;;;;;;;;;;;24.97;37.64;100282.25;5043058;28;1101;-57
2021/01/06 01:45:44;;;;;;;;;;;;;;;24.95;37.35;100274.47;5038904;28;1378;-60
2021/01/06 01:48:14;;;;;;;;;;;;;;;24.95;37.45;100276.31;5037605;28;1110;-58
2021/01/06 01:50:40;;;;;;;;;;;;;;;24.93;37.66;100276.56;5041879;28;1898;-57
2021/01/06 01:53:06;;;;;;;;;;;;;;;24.94;37.33;100274.69;5041959;28;1019;-63
2021/01/06 01:55:33;;;;;;;;;;;;;;;24.93;37.33;100279.25;5021327;28;1284;-59
2021/01/06 01:58:01;;;;;;;;;;;;;;;24.92;37.62;100276.78;5040093;28;1066;-57
2021/01/06 02:00:29;;;;;;;;;;;;;;;24.90;37.67;100271.66;5023929;28;1031;-60
2021/01/06 02:02:54;;;;;;;;;;;;;;;24.91;37.32;100280.50;5038486;28;1787;-58
2021/01/06 02:05:22;;;;;;;;;;;;;;;24.90;37.68;100274.34;5044436;28;1364;-58
2021/01/06 02:07:55;;;;;;;;;;;;;;;24.90;37.36;100273.50;5041666;28;1189;-58
2021/01/06 02:10:23;;;;;;;;;;;;;;;24.91;37.49;100283.19;5036245;28;1129;-56
2021/01/06 02:12:58;;;;;;;;;;;;;;;24.88;37.24;100271.88;5032924;28;1902;-59
2021/01/06 02:15:26;;;;;;;;;;;;;;;24.87;37.20;100272.91;5044072;28;1283;-61
2021/01/06 02:17:51;;;;;;;;;;;;;;;24.86;37.21;100276.66;5040946;28;1066;-60
2021/01/06 02:20:18;;;;;;;;;;;;;;;24.84;37.17;100281.41;5041017;28;1153;-61
2021/01/06 02:22:44;;;;;;;;;;;;;;;24.88;37.31;100285.28;5034713;28;1047;-61
2021/01/06 02:25:09;;;;;;;;;;;;;;;24.85;37.44;100275.00;5045513;28;1075;-61
2021/01/06 02:27:34;;;;;;;;;;;;;;;24.85;37.12;100275.00;5045070;28;1193;-58
2021/01/06 02:30:00;;;;;;;;;;;;;;;24.87;37.24;100272.13;5041106;28;1065;-58
2021/01/06 02:32:25;;;;;;;;;;;;;;;24.83;37.42;100277.09;5040515;28;1906;-57
2021/01/06 02:34:50;;;;;;;;;;;;;;;24.83;37.03;100279.78;5036750;28;1177;-59
2021/01/06 02:37:15;;;;;;;;;;;;;;;24.84;37.51;100277.94;5046081;28;1224;-58
2021/01/06 02:39:40;;;;;;;;;;;;;;;24.85;37.24;100284.94;5043565;28;1015;-57
2021/01/06 02:42:06;;;;;;;;;;;;;;;24.84;37.27;100281.41;5039519;28;1164;-59
2021/01/06 02:44:32;;;;;;;;;;;;;;;24.82;37.07;100280.81;5038950;28;1023;-58
2021/01/06 02:46:57;;;;;;;;;;;;;;;24.82;37.04;100277.34;5042605;28;1367;-57
2021/01/06 02:49:23;;;;;;;;;;;;;;;24.82;37.14;100278.16;5043169;28;1065;-61
2021/01/06 02:52:14;;;;;;;;;;;;;;;24.80;36.98;100276.75;5037766;28;1969;-57
2021/01/06 02:54:41;;;;;;;;;;;;;;;24.80;36.93;100277.56;5004823;28;1407;-57
2021/01/06 02:57:07;;;;;;;;;;;;;;;24.78;37.23;100274.28;5015149;28;1366;-60
2021/01/06 02:59:35;;;;;;;;;;;;;;;24.81;36.74;100281.06;5040048;28;1082;-61
2021/01/06 03:02:01;;;;;;;;;;;;;;;24.79;37.04;100280.47;5039180;28;1089;-59
2021/01/06 03:04:31;;;;;;;;;;;;;;;24.78;36.85;100281.53;5038251;28;1031;-56
2021/01/06 03:06:58;;;;;;;;;;;;;;;24.78;36.98;100279.66;5041372;28;1394;-60
2021/01/06 03:09:29;;;;;;;;;;;;;;;24.78;36.96;100276.97;5032472;28;1594;-57
2021/01/06 03:11:55;;;;;;;;;;;;;;;24.79;36.96;100272.44;5042998;28;1878;-61
2021/01/06 03:14:21;;;;;;;;;;;;;;;24.76;36.91;100272.91;5039573;28;1142;-59
2021/01/06 03:16:46;;;;;;;;;;;;;;;24.75;36.82;100272.06;5039061;28;1286;-60
2021/01/06 03:19:14;;;;;;;;;;;;;;;24.76;36.94;100275.56;5035588;28;1105;-57
2021/01/06 03:21:41;;;;;;;;;;;;;;;24.74;36.67;100270.44;5042482;28;1079;-58
2021/01/06 03:24:08;;;;;;;;;;;;;;;24.74;37.02;100262.38;5040490;28;1042;-61
2021/01/06 03:26:34;;;;;;;;;;;;;;;24.74;36.89;100262.38;5038339;28;1316;-59
2021/01/06 03:29:00;;;;;;;;;;;;;;;24.76;36.62;100254.94;5043546;28;1039;-58
2021/01/06 03:31:34;;;;;;;;;;;;;;;24.75;36.91;100258.66;5040448;28;1894;-60
2021/01/06 03:34:03;;;;;;;;;;;;;;;24.71;36.82;100257.44;5035508;28;1019;-61
2021/01/06 03:36:31;;;;;;;;;;;;;;;24.70;36.89;100258.50;5038931;28;1289;-60
2021/01/06 03:39:06;;;;;;;;;;;;;;;24.69;37.09;100252.34;5038419;28;1067;-61
2021/01/06 03:41:33;;;;;;;;;;;;;;;24.68;36.75;100252.56;5041112;28;1050;-62
2021/01/06 03:44:06;;;;;;;;;;;;;;;24.69;36.79;100249.66;5039558;28;1067;-61
2021/01/06 03:46:49;;;;;;;;;;;;;;;24.69;36.54;100244.28;5027215;28;1301;-58
2021/01/06 03:49:30;;;;;;;;;;;;;;;24.67;36.65;100238.34;5043068;28;1074;-61
2021/01/06 03:52:12;;;;;;;;;;;;;;;24.68;36.58;100236.47;5039136;28;2010;-61
2021/01/06 03:54:48;;;;;;;;;;;;;;;24.64;36.56;100237.97;5036971;28;1082;-61
2021/01/06 03:57:14;;;;;;;;;;;;;;;24.64;36.67;100240.66;5032971;28;1291;-59
2021/01/06 03:59:41;;;;;;;;;;;;;;;24.64;36.49;100240.66;5034075;28;996;-60
2021/01/06 04:02:11;;;;;;;;;;;;;;;24.65;36.42;100248.47;5046745;28;1039;-63
2021/01/06 04:05:03;;;;;;;;;;;;;;;24.64;36.65;100246.84;5039219;28;1726;-59
2021/01/06 04:07:47;;;;;;;;;;;;;;;24.64;36.56;100241.47;5030395;28;1355;-59
2021/01/06 04:10:14;;;;;;;;;;;;;;;24.64;36.62;100233.44;5027397;28;1098;-61
2021/01/06 04:12:39;;;;;;;;;;;;;;;24.64;36.54;100229.94;5039532;28;1960;-59
2021/01/06 04:15:05;;;;;;;;;;;;;;;24.65;36.48;100227.03;5043782;28;1111;-57
2021/01/06 04:17:32;;;;;;;;;;;;;;;24.66;36.60;100230.53;5037425;28;1193;-57
2021/01/06 04:19:59;;;;;;;;;;;;;;;24.64;36.54;100225.41;5035164;28;1063;-60
2021/01/06 04:22:44;;;;;;;;;;;;;;;24.62;36.43;100224.81;5022198;28;1653;-61
2021/01/06 04:25:48;;;;;;;;;;;;;;;24.61;36.56;100230.38;5035557;28;1671;-54
2021/01/06 04:28:21;;;;;;;;;;;;;;;24.59;36.55;100228.75;4953299;29;1380;-58
2021/01/06 04:30:48;;;;;;;;;;;;;;;24.57;36.48;100227.38;4952384;29;1902;-58
2021/01/06 04:33:39;;;;;;;;;;;;;;;24.62;36.16;100227.50;4994390;28;1270;-58
2021/01/06 04:36:10;;;;;;;;;;;;;;;24.62;36.23;100222.13;5034770;28;1377;-57
2021/01/06 04:38:37;;;;;;;;;;;;;;;24.62;36.23;100221.31;5041269;28;1254;-59
2021/01/06 04:41:19;;;;;;;;;;;;;;;24.58;36.31;100226.31;5045984;28;1145;-57
2021/01/06 04:43:49;;;;;;;;;;;;;;;24.57;36.25;100219.31;5032611;28;1821;-57
2021/01/06 04:46:33;;;;;;;;;;;;;;;24.57;36.29;100214.75;5023176;28;1366;-58
2021/01/06 04:49:15;;;;;;;;;;;;;;;24.58;36.20;100216.41;5038615;28;1096;-62
2021/01/06 04:51:59;;;;;;;;;;;;;;;24.57;36.26;100212.09;5038020;28;1894;-57
2021/01/06 04:54:36;;;;;;;;;;;;;;;24.55;36.03;100210.69;5036086;28;1166;-61
2021/01/06 04:57:07;;;;;;;;;;;;;;;24.54;36.32;100215.22;5030647;28;1371;-57
2021/01/06 04:59:45;;;;;;;;;;;;;;;24.55;36.44;100213.38;5016432;28;1075;-61
2021/01/06 05:02:10;;;;;;;;;;;;;;;24.53;36.26;100208.22;5044421;28;1019;-59
2021/01/06 05:04:35;;;;;;;;;;;;;;;24.53;36.07;100208.22;5036019;28;1161;-59
2021/01/06 05:07:00;;;;;;;;;;;;;;;24.53;36.39;100212.78;5017303;28;1372;-59
2021/01/06 05:09:28;;;;;;;;;;;;;;;24.53;36.21;100208.22;5037987;28;1012;-57
2021/01/06 05:11:56;;;;;;;;;;;;;;;24.49;36.34;100209.72;5045235;28;1882;-58
2021/01/06 05:14:24;;;;;;;;;;;;;;;24.51;36.15;100204.97;5041502;28;1142;-55
2021/01/06 05:16:50;;;;;;;;;;;;;;;24.50;36.13;100206.00;5042525;28;1280;-58
2021/01/06 05:19:20;;;;;;;;;;;;;;;24.49;36.12;100207.06;5034406;28;1161;-57
2021/01/06 05:21:46;;;;;;;;;;;;;;;24.51;36.48;100214.88;5043441;28;1020;-60
2021/01/06 05:24:27;;;;;;;;;;;;;;;24.49;36.36;100214.28;5029166;28;1705;-57
2021/01/06 05:27:14;;;;;;;;;;;;;;;24.47;36.17;100217.19;5028167;28;1281;-54
2021/01/06 05:29:45;;;;;;;;;;;;;;;24.49;36.40;100223.13;5035337;28;1030;-61
2021/01/06 05:32:16;;;;;;;;;;;;;;;24.47;36.03;100217.19;5031784;28;1894;-57
2021/01/06 05:34:41;;;;;;;;;;;;;;;24.49;35.99;100217.78;5038766;28;1091;-58
2021/01/06 05:37:09;;;;;;;;;;;;;;;24.48;36.31;100220.69;5044238;28;1334;-58
2021/01/06 05:39:34;;;;;;;;;;;;;;;24.48;36.15;100220.69;5043205;28;1081;-59
2021/01/06 05:42:10;;;;;;;;;;;;;;;24.48;36.24;100234.09;5029448;28;1114;-61
2021/01/06 05:44:35;;;;;;;;;;;;;;;24.47;36.32;100227.91;5031796;28;1120;-60
2021/01/06 05:47:00;;;;;;;;;;;;;;;24.47;36.10;100232.44;5033202;28;1267;-58
2021/01/06 05:49:30;;;;;;;;;;;;;;;24.46;36.15;100223.59;5042882;28;1046;-62
2021/01/06 05:51:57;;;;;;;;;;;;;;;24.46;36.43;100228.94;5038164;28;1890;-57
2021/01/06 05:54:40;;;;;;;;;;;;;;;24.47;36.23;100243.97;5038566;28;1267;-62
2021/01/06 05:57:10;;;;;;;;;;;;;;;24.43;36.12;100235.59;5036434;28;1276;-58
2021/01/06 05:59:47;;;;;;;;;;;;;;;24.46;36.18;100238.84;5045437;28;1101;-57
2021/01/06 06:02:23;;;;;;;;;;;;;;;24.45;36.11;100235.34;5038157;28;1278;-59
2021/01/06 06:05:03;;;;;;;;;;;;;;;24.43;36.04;100238.28;5034763;28;1064;-61
2021/01/06 06:07:33;;;;;;;;;;;;;;;24.44;36.03;100231.88;5049878;28;1340;-61
2021/01/06 06:10:07;;;;;;;;;;;;;;;24.44;36.28;100239.91;5036492;28;1082;-58
2021/01/06 06:12:36;;;;;;;;;;;;;;;24.46;36.13;100236.97;5026093;28;1973;-59
2021/01/06 06:15:03;;;;;;;;;;;;;;;24.47;35.90;100240.50;5040966;28;1035;-58
2021/01/06 06:17:40;;;;;;;;;;;;;;;24.44;36.18;100242.59;5042716;28;1224;-58
2021/01/06 06:20:09;;;;;;;;;;;;;;;24.43;36.26;100240.13;5039465;28;991;-60
2021/01/06 06:22:46;;;;;;;;;;;;;;;24.45;36.13;100240.72;5035188;28;1015;-60
2021/01/06 06:25:25;;;;;;;;;;;;;;;24.45;36.11;100240.72;5045183;28;1315;-58
2021/01/06 06:28:01;;;;;;;;;;;;;;;24.41;36.20;100245.72;5037721;28;1725;-60
2021/01/06 06:30:27;;;;;;;;;;;;;;;24.42;36.08;100241.16;5035301;28;1014;-58
2021/01/06 06:32:52;;;;;;;;;;;;;;;24.45;36.38;100248.75;5032597;28;1949;-58
2021/01/06 06:35:23;;;;;;;;;;;;;;;24.47;36.06;100240.50;5033229;28;1137;-60
2021/01/06 06:37:54;;;;;;;;;;;;;;;24.45;36.31;100248.75;5033026;28;1081;-57
2021/01/06 06:40:20;;;;;;;;;;;;;;;24.43;36.43;100251.66;5030262;28;1134;-60
2021/01/06 06:42:48;;;;;;;;;;;;;;;24.43;36.23;100253.50;5034992;28;1066;-61
2021/01/06 06:45:32;;;;;;;;;;;;;;;24.40;36.31;100262.00;5035207;28;1168;-60
2021/01/06 06:48:09;;;;;;;;;;;;;;;24.42;36.29;100260.75;5044500;28;1063;-58
2021/01/06 06:50:51;;;;;;;;;;;;;;;24.44;36.42;100265.88;5042845;28;1082;-58
2021/01/06 06:53:35;;;;;;;;;;;;;;;24.43;36.16;100262.38;5035991;28;1054;-58
2021/01/06 06:56:10;;;;;;;;;;;;;;;24.40;36.54;100267.34;5034050;28;1273;-60
2021/01/06 06:58:57;;;;;;;;;;;;;;;24.41;36.47;100269.00;5038079;28;1188;-59
2021/01/06 07:01:31;;;;;;;;;;;;;;;24.41;36.30;100261.78;5035337;28;1019;-57
2021/01/06 07:03:59;;;;;;;;;;;;;;;24.41;36.43;100274.34;5039068;28;1039;-60
2021/01/06 07:06:25;;;;;;;;;;;;;;;24.39;36.32;100266.56;5037527;28;1399;-58
2021/01/06 07:08:52;;;;;;;;;;;;;;;24.41;36.25;100266.31;5032805;28;1015;-55
2021/01/06 07:11:32;;;;;;;;;;;;;;;24.39;36.28;100260.38;5035233;28;1961;-57
2021/01/06 07:14:06;;;;;;;;;;;;;;;24.39;36.34;100260.38;5044496;28;1036;-61
2021/01/06 07:16:33;;;;;;;;;;;;;;;24.39;36.31;100266.56;5025623;28;1186;-62
2021/01/06 07:19:13;;;;;;;;;;;;;;;24.40;36.40;100264.69;5033211;28;1011;-58
2021/01/06 07:21:39;;;;;;;;;;;;;;;24.40;36.31;100272.72;5029896;28;1540;-59
2021/01/06 07:24:07;;;;;;;;;;;;;;;24.39;36.44;100266.56;5029492;28;1114;-59
2021/01/06 07:26:44;;;;;;;;;;;;;;;24.41;36.50;100269.00;5026601;28;1749;-61
2021/01/06 07:29:11;;;;;;;;;;;;;;;24.42;36.46;100278.66;5027924;28;1742;-64
2021/01/06 07:31:43;;;;;;;;;;;;;;;24.39;36.24;100269.25;5021414;28;2253;-58
2021/01/06 07:34:15;;;;;;;;;;;;;;;24.41;36.40;100274.34;5026266;28;1219;-58
2021/01/06 07:36:54;;;;;;;;;;;;;;;24.39;36.25;100274.59;5021530;28;1485;-60
2021/01/06 07:39:21;;;;;;;;;;;;;;;24.40;36.40;100272.72;5025170;28;1385;-58
2021/01/06 07:41:47;;;;;;;;;;;;;;;24.37;36.41;100279.38;5016459;28;1448;-61
2021/01/06 07:44:15;;;;;;;;;;;;;;;24.42;36.25;100281.34;5022472;28;1218;-56
2021/01/06 07:46:55;;;;;;;;;;;;;;;24.41;36.24;100279.72;5021781;28;1543;-58
2021/01/06 07:49:28;;;;;;;;;;;;;;;24.43;36.63;100282.97;5033876;28;980;-58
2021/01/06 07:51:59;;;;;;;;;;;;;;;24.61;36.55;100290.19;5038716;28;1956;-50
2021/01/06 07:54:31;;;;;;;;;;;;;;;24.68;36.65;100287.41;5018770;28;1261;-52
2021/01/06 07:57:06;;;;;;;;;;;;;;;24.78;36.81;100295.72;5035359;28;1291;-51
2021/01/06 07:59:34;;;;;;;;;;;;;;;24.82;36.60;100290.75;5028658;28;1007;-52
2021/01/06 08:02:06;;;;;;;;;;;;;;;24.85;36.36;100299.13;5037645;28;1110;-54
2021/01/06 08:04:37;;;;;;;;;;;;;;;24.94;37.08;100296.13;5036241;28;1038;-53
2021/01/06 08:07:07;;;;;;;;;;;;;;;24.94;36.32;100299.66;5037833;28;1390;-56
2021/01/06 08:09:32;;;;;;;;;;;;;;;24.90;36.35;100300.31;5029688;28;1153;-55
2021/01/06 08:11:59;;;;;;;;;;;;;;;24.90;36.19;100303.00;5033705;28;1898;-54
2021/01/06 08:14:32;;;;;;;;;;;;;;;24.91;35.97;100310.81;5035844;28;1264;-55
2021/01/06 08:17:00;;;;;;;;;;;;;;;24.92;36.41;100306.28;5035648;28;1357;-58
2021/01/06 08:19:25;;;;;;;;;;;;;;;24.96;36.19;100302.91;5032067;28;1144;-54
2021/01/06 08:22:09;;;;;;;;;;;;;;;24.99;38.36;100301.63;5038711;28;1047;-53
2021/01/06 08:24:41;;;;;;;;;;;;;;;25.05;35.76;100311.44;5031061;28;1110;-56
2021/01/06 08:27:12;;;;;;;;;;;;;;;25.13;40.20;100308.41;5039833;28;1541;-57
2021/01/06 08:29:37;;;;;;;;;;;;;;;25.13;35.89;100316.47;5030033;28;1043;-53
2021/01/06 08:32:04;;;;;;;;;;;;;;;25.13;36.35;100319.16;5032303;28;1964;-58
2021/01/06 08:34:31;;;;;;;;;;;;;;;25.11;35.47;100313.19;5051535;28;1184;-52
2021/01/06 08:37:12;;;;;;;;;;;;;;;25.11;38.72;100312.38;5020872;28;1540;-57
2021/01/06 08:40:06;;;;;;;;;;;;;;;25.13;35.95;100303.06;5026320;28;1090;-62
2021/01/06 08:42:41;;;;;;;;;;;;;;;25.13;35.32;100305.72;5006699;28;1277;-55
2021/01/06 08:45:07;;;;;;;;;;;;;;;25.13;35.51;100310.31;5022694;28;1090;-54
2021/01/06 08:47:34;;;;;;;;;;;;;;;25.11;35.56;100310.50;5018080;28;1386;-51
2021/01/06 08:50:12;;;;;;;;;;;;;;;25.03;34.69;100308.16;5025587;28;1313;-58
2021/01/06 08:52:38;;;;;;;;;;;;;;;25.01;34.30;100311.09;5030835;28;1901;-54
2021/01/06 08:55:04;;;;;;;;;;;;;;;24.96;34.34;100313.63;5027199;28;1206;-54
2021/01/06 08:57:34;;;;;;;;;;;;;;;24.94;34.26;100313.06;5020811;28;1466;-54
2021/01/06 09:00:18;;;;;;;;;;;;;;;24.90;34.06;100317.25;5019705;28;1242;-58
2021/01/06 09:02:53;;;;;;;;;;;;;;;24.86;33.97;100314.19;5020551;28;1140;-57
2021/01/06 09:05:33;;;;;;;;;;;;;;;24.84;33.40;100315.47;5021923;28;1186;-56
2021/01/06 09:08:00;;;;;;;;;;;;;;;24.82;33.46;100318.38;5023881;28;1468;-56
2021/01/06 09:10:31;;;;;;;;;;;;;;;24.82;33.34;100313.00;5038255;28;1164;-51
2021/01/06 09:13:09;;;;;;;;;;;;;;;24.79;33.54;100321.50;5037455;28;1893;-52
2021/01/06 09:15:40;;;;;;;;;;;;;;;24.83;33.89;100313.84;5024321;28;1669;-56
2021/01/06 09:18:25;;;;;;;;;;;;;;;24.82;33.26;100315.69;5041416;28;1087;-61
2021/01/06 09:21:09;;;;;;;;;;;;;;;24.71;33.51;100311.91;4989258;28;1155;-59
2021/01/06 09:23:35;;;;;;;;;;;;;;;24.70;33.47;100317.47;5029478;28;1416;-58
2021/01/06 09:26:01;;;;;;;;;;;;;;;24.67;33.93;100315.25;5026381;28;1353;-58
2021/01/06 09:28:28;;;;;;;;;;;;;;;24.63;33.70;100322.09;5029979;28;1582;-59
2021/01/06 09:30:53;;;;;;;;;;;;;;;24.61;34.02;100321.50;5024028;28;1396;-53
2021/01/06 09:33:24;;;;;;;;;;;;;;;24.58;33.98;100323.59;5014024;28;1957;-57
2021/01/06 09:35:49;;;;;;;;;;;;;;;24.54;34.02;100319.72;5027948;28;1454;-60
2021/01/06 09:38:18;;;;;;;;;;;;;;;24.54;34.14;100321.63;5026933;28;1287;-58
2021/01/06 09:40:44;;;;;;;;;;;;;;;24.56;33.99;100319.53;5023748;28;1206;-59
2021/01/06 09:43:27;;;;;;;;;;;;;;;24.53;33.70;100326.13;5017477;28;1190;-55
2021/01/06 09:45:52;;;;;;;;;;;;;;;24.51;34.09;100324.75;5030740;28;1470;-59
2021/01/06 09:48:18;;;;;;;;;;;;;;;24.54;36.44;100335.81;5024599;28;1441;-61
2021/01/06 09:50:52;;;;;;;;;;;;;;;24.65;33.99;100328.88;5028483;28;1486;-59
2021/01/06 09:53:21;;;;;;;;;;;;;;;24.59;34.11;100327.09;5022830;28;1898;-60
2021/01/06 09:55:48;;;;;;;;;;;;;;;24.52;33.76;100329.06;5027800;28;1387;-59
2021/01/06 09:58:28;;;;;;;;;;;;;;;24.46;33.78;100328.09;5032040;28;1074;-62
2021/01/06 10:01:11;;;;;;;;;;;;;;;24.43;33.80;100324.00;5036975;28;1762;-59
2021/01/06 10:03:39;;;;;;;;;;;;;;;24.40;33.81;100326.31;5038812;28;1034;-60
2021/01/06 10:06:04;;;;;;;;;;;;;;;24.36;34.00;100330.47;5041817;28;1607;-59
2021/01/06 10:08:35;;;;;;;;;;;;;;;24.34;33.71;100320.00;5034736;28;1133;-58
2021/01/06 10:11:05;;;;;;;;;;;;;;;24.33;33.79;100322.88;5029716;28;1940;-62
2021/01/06 10:13:48;;;;;;;;;;;;;;;24.31;33.57;100320.44;5043601;28;1058;-59
2021/01/06 10:16:16;;;;;;;;;;;;;;;24.28;33.77;100319.03;5036194;28;1258;-59
2021/01/06 10:19:07;;;;;;;;;;;;;;;24.29;33.64;100317.16;5037822;28;1050;-58
2021/01/06 10:21:35;;;;;;;;;;;;;;;24.29;33.71;100309.94;5037826;28;1059;-61
2021/01/06 10:24:18;;;;;;;;;;;;;;;24.27;33.68;100316.59;5041013;28;1134;-58
2021/01/06 10:26:43;;;;;;;;;;;;;;;24.27;33.50;100311.22;5037536;28;1247;-56
2021/01/06 10:29:21;;;;;;;;;;;;;;;24.24;33.82;100315.16;5042060;28;1110;-58
2021/01/06 10:31:59;;;;;;;;;;;;;;;24.22;33.67;100308.41;5035930;28;1978;-59
2021/01/06 10:34:41;;;;;;;;;;;;;;;24.22;33.48;100303.03;5035452;28;1134;-59
2021/01/06 10:37:27;;;;;;;;;;;;;;;24.20;33.42;100300.56;5040260;28;1687;-58
2021/01/06 10:39:53;;;;;;;;;;;;;;;24.20;33.27;100297.09;5037018;28;1042;-61
2021/01/06 10:42:21;;;;;;;;;;;;;;;24.20;33.46;100295.22;5041024;28;1077;-61
2021/01/06 10:44:51;;;;;;;;;;;;;;;24.19;33.45;100298.94;5034455;28;1085;-60
2021/01/06 10:47:32;;;;;;;;;;;;;;;24.17;33.51;100287.63;5033099;28;1260;-58
2021/01/06 10:50:15;;;;;;;;;;;;;;;24.18;33.34;100281.22;5039622;28;1081;-60
2021/01/06 10:52:50;;;;;;;;;;;;;;;24.17;33.45;100284.16;5038074;28;1963;-58
2021/01/06 10:55:17;;;;;;;;;;;;;;;24.16;33.40;100279.84;5032797;28;1109;-59
2021/01/06 10:57:50;;;;;;;;;;;;;;;24.14;33.27;100275.53;5040261;28;1179;-54
2021/01/06 11:00:26;;;;;;;;;;;;;;;24.14;33.33;100280.03;5035147;28;1087;-61
2021/01/06 11:02:51;;;;;;;;;;;;;;;24.13;33.19;100279.25;5038631;28;1035;-60
2021/01/06 11:05:20;;;;;;;;;;;;;;;24.12;33.35;100274.09;5039845;28;1094;-58
2021/01/06 11:08:04;;;;;;;;;;;;;;;24.12;33.09;100271.41;5027231;28;1292;-59
2021/01/06 11:10:29;;;;;;;;;;;;;;;24.11;33.23;100269.78;5038446;28;971;-59
2021/01/06 11:13:13;;;;;;;;;;;;;;;24.08;33.31;100265.69;5039122;28;1926;-60
2021/01/06 11:15:56;;;;;;;;;;;;;;;24.07;33.29;100273.94;5040032;28;1250;-60
2021/01/06 11:18:21;;;;;;;;;;;;;;;24.06;33.26;100267.78;5034467;28;1051;-57
2021/01/06 11:20:50;;;;;;;;;;;;;;;24.06;33.29;100262.44;5021199;28;1070;-61
2021/01/06 11:23:42;;;;;;;;;;;;;;;24.06;33.10;100266.97;5039647;28;990;-58
2021/01/06 11:26:31;;;;;;;;;;;;;;;24.06;33.20;100272.31;5038811;28;1331;-61
2021/01/06 11:29:15;;;;;;;;;;;;;;;24.07;33.23;100269.44;5039202;28;1007;-57
2021/01/06 11:31:41;;;;;;;;;;;;;;;24.06;32.92;100272.31;5035486;28;1894;-59
2021/01/06 11:34:07;;;;;;;;;;;;;;;24.02;33.05;100261.25;5032028;28;1044;-53
2021/01/06 11:36:38;;;;;;;;;;;;;;;24.02;33.14;100258.56;5044081;28;1343;-57
2021/01/06 11:39:05;;;;;;;;;;;;;;;24.03;32.98;100264.72;5041191;28;1126;-59
2021/01/06 11:41:30;;;;;;;;;;;;;;;24.00;33.09;100258.78;5032802;28;1130;-61
2021/01/06 11:43:59;;;;;;;;;;;;;;;24.00;33.14;100253.41;5034448;28;1150;-60
2021/01/06 11:46:33;;;;;;;;;;;;;;;24.00;32.81;100258.78;5029481;28;1268;-61
2021/01/06 11:49:04;;;;;;;;;;;;;;;23.99;33.01;100250.94;5035874;28;1019;-60
2021/01/06 11:51:29;;;;;;;;;;;;;;;23.98;33.19;100250.13;5038255;28;1898;-59
2021/01/06 11:54:01;;;;;;;;;;;;;;;23.95;33.09;100253.25;5037488;28;1082;-61
2021/01/06 11:56:32;;;;;;;;;;;;;;;23.97;32.92;100253.84;5032390;28;1384;-59
2021/01/06 11:59:16;;;;;;;;;;;;;;;23.96;32.82;100249.53;5039099;28;1098;-61
2021/01/06 12:01:53;;;;;;;;;;;;;;;23.95;32.82;100242.53;5038643;28;1069;-61
2021/01/06 12:04:26;;;;;;;;;;;;;;;23.95;32.77;100242.53;5033146;28;1059;-57
2021/01/06 12:07:09;;;;;;;;;;;;;;;23.95;32.96;100247.09;5035119;28;1259;-59
2021/01/06 12:09:41;;;;;;;;;;;;;;;23.94;32.80;100237.41;5036533;28;1055;-62
2021/01/06 12:12:20;;;;;;;;;;;;;;;23.94;32.68;100237.41;5037381;28;1906;-60
2021/01/06 12:15:07;;;;;;;;;;;;;;;23.92;32.80;100234.94;5039216;28;1047;-61
2021/01/06 12:17:38;;;;;;;;;;;;;;;23.92;32.62;100234.16;5029076;28;1284;-60
2021/01/06 12:20:07;;;;;;;;;;;;;;;23.92;32.65;100234.16;5029837;28;1070;-59
2021/01/06 12:22:33;;;;;;;;;;;;;;;23.90;32.79;100234.34;5037503;28;1689;-61
2021/01/06 12:25:00;;;;;;;;;;;;;;;23.91;32.60;100219.94;5037081;28;996;-59
2021/01/06 12:27:32;;;;;;;;;;;;;;;23.91;32.67;100219.94;5038314;28;1213;-62
2021/01/06 12:30:00;;;;;;;;;;;;;;;23.90;32.74;100217.50;5035366;28;1015;-60
2021/01/06 12:32:44;;;;;;;;;;;;;;;23.88;32.82;100224.94;5034466;28;1963;-59
2021/01/06 12:35:28;;;;;;;;;;;;;;;23.87;32.80;100226.78;5032143;28;992;-61
2021/01/06 12:38:20;;;;;;;;;;;;;;;23.87;32.73;100231.31;5039318;28;1002;-58
2021/01/06 12:41:06;;;;;;;;;;;;;;;23.86;32.64;100233.16;5038248;28;1347;-60
2021/01/06 12:43:39;;;;;;;;;;;;;;;23.85;32.74;100229.69;5015593;28;1281;-60
2021/01/06 12:46:30;;;;;;;;;;;;;;;23.87;32.64;100217.94;5028681;28;1405;-60
2021/01/06 12:49:10;;;;;;;;;;;;;;;23.87;32.50;100226.78;4998268;28;1160;-61
2021/01/06 12:51:38;;;;;;;;;;;;;;;23.89;32.48;100218.53;5036448;28;1960;-61
2021/01/06 12:54:06;;;;;;;;;;;;;;;23.86;32.45;100217.09;5038042;28;1241;-58
2021/01/06 12:56:35;;;;;;;;;;;;;;;23.87;32.62;100229.44;5030789;28;1288;-61
2021/01/06 12:59:03;;;;;;;;;;;;;;;23.87;32.69;100226.78;5038982;28;1145;-61
2021/01/06 13:01:40;;;;;;;;;;;;;;;23.88;32.47;100230.28;5037499;28;1022;-61
2021/01/06 13:04:06;;;;;;;;;;;;;;;23.87;32.68;100229.44;5035076;28;1070;-59
2021/01/06 13:06:34;;;;;;;;;;;;;;;23.85;32.39;100231.53;5034072;28;1372;-61
2021/01/06 13:09:01;;;;;;;;;;;;;;;23.83;32.46;100223.72;5030893;28;1074;-60